createdAt,value
2019-01-28T00:00:01.219Z,4.9
2019-01-28T00:05:01.869Z,4.9
2019-01-28T00:10:01.668Z,4.8
2019-01-28T00:15:01.298Z,4.8
2019-01-28T00:20:01.917Z,4.7
2019-01-28T00:25:01.907Z,4.6
2019-01-28T00:30:01.795Z,4.5
2019-01-28T00:35:01.440Z,4.4
2019-01-28T00:40:01.690Z,4.3
2019-01-28T00:45:01.397Z,4.2
2019-01-28T00:50:01.557Z,4.1
2019-01-28T00:55:01.418Z,4.1
2019-01-28T01:00:02.141Z,4
2019-01-28T01:05:01.660Z,3.9
2019-01-28T01:10:01.846Z,3.9
2019-01-28T01:15:01.948Z,3.9
2019-01-28T01:20:02.084Z,3.9
2019-01-28T01:25:01.601Z,3.9
2019-01-28T01:30:01.634Z,3.9
2019-01-28T01:35:01.429Z,4
2019-01-28T01:40:01.698Z,3.9
2019-01-28T01:45:01.772Z,3.9
2019-01-28T01:50:01.308Z,3.9
2019-01-28T01:55:01.327Z,3.9
2019-01-28T02:00:02.340Z,3.9
2019-01-28T02:05:01.782Z,4
2019-01-28T02:10:01.458Z,4
2019-01-28T02:15:01.677Z,4
2019-01-28T02:20:02.140Z,4
2019-01-28T02:25:02.140Z,3.9
2019-01-28T02:30:01.855Z,3.8
2019-01-28T02:35:01.668Z,3.8
2019-01-28T02:40:01.369Z,3.9
2019-01-28T02:45:01.929Z,3.9
2019-01-28T02:50:01.697Z,3.9
2019-01-28T02:55:01.799Z,3.9
2019-01-28T03:00:01.272Z,4
2019-01-28T03:05:01.840Z,4
2019-01-28T03:10:02.290Z,3.9
2019-01-28T03:15:01.570Z,3.9
2019-01-28T03:20:01.796Z,3.9
2019-01-28T03:25:01.846Z,3.9
2019-01-28T03:30:01.495Z,3.9
2019-01-28T03:35:02.121Z,3.9
2019-01-28T03:40:01.922Z,3.9
2019-01-28T03:45:02.430Z,3.9
2019-01-28T03:50:02.185Z,3.9
2019-01-28T03:55:01.329Z,3.9
2019-01-28T04:00:01.542Z,3.9
2019-01-28T04:05:02.253Z,3.9
2019-01-28T04:10:01.313Z,4
2019-01-28T04:15:01.613Z,4
2019-01-28T04:20:01.186Z,4
2019-01-28T04:25:02.152Z,4
2019-01-28T04:30:01.651Z,4.1
2019-01-28T04:35:02.012Z,4.1
2019-01-28T04:40:01.919Z,4
2019-01-28T04:45:02.071Z,3.9
2019-01-28T04:50:02.302Z,3.8
2019-01-28T04:55:01.543Z,3.8
2019-01-28T05:00:02.368Z,3.8
2019-01-28T05:05:01.683Z,3.8
2019-01-28T05:10:01.686Z,3.8
2019-01-28T05:15:01.218Z,3.8
2019-01-28T05:20:02.242Z,3.8
2019-01-28T05:25:01.238Z,3.8
2019-01-28T05:30:01.512Z,3.6
2019-01-28T05:35:01.396Z,3.6
2019-01-28T05:40:01.668Z,3.6
2019-01-28T05:45:01.679Z,3.6
2019-01-28T05:50:01.511Z,3.5
2019-01-28T05:55:01.568Z,3.5
2019-01-28T06:00:01.818Z,3.5
2019-01-28T06:05:01.548Z,3.4
2019-01-28T06:10:01.706Z,3.4
2019-01-28T06:15:02.055Z,3.3
2019-01-28T06:20:01.774Z,3.3
2019-01-28T06:25:02.076Z,3.3
2019-01-28T06:30:02.168Z,3.3
2019-01-28T06:35:02.020Z,3.2
2019-01-28T06:40:01.878Z,3.2
2019-01-28T06:45:02.305Z,3.2
2019-01-28T06:50:01.680Z,3.2
2019-01-28T06:55:01.981Z,3.2
2019-01-28T07:00:01.684Z,3.2
2019-01-28T07:05:02.192Z,3.3
2019-01-28T07:10:01.504Z,3.3
2019-01-28T07:15:02.061Z,3.3
2019-01-28T07:20:01.658Z,3.4
2019-01-28T07:25:01.420Z,3.4
2019-01-28T07:30:02.037Z,3.5
2019-01-28T07:35:01.831Z,3.5
2019-01-28T07:40:02.463Z,3.5
2019-01-28T07:45:01.688Z,3.6
2019-01-28T07:50:01.844Z,3.6
2019-01-28T07:55:02.014Z,3.5
2019-01-28T08:00:01.605Z,3.5
2019-01-28T08:05:01.783Z,3.5
2019-01-28T08:10:02.245Z,3.5
2019-01-28T08:15:02.408Z,3.6
2019-01-28T08:20:01.669Z,3.6
2019-01-28T08:25:01.987Z,3.7
2019-01-28T08:30:01.374Z,3.8
2019-01-28T08:35:01.388Z,3.9
2019-01-28T08:40:02.288Z,4
2019-01-28T08:45:01.392Z,4.1
2019-01-28T08:50:01.974Z,4.1
2019-01-28T08:55:01.826Z,4.2
2019-01-28T09:00:01.535Z,4.2
2019-01-28T09:05:01.863Z,4.2
2019-01-28T09:10:01.398Z,4.2
2019-01-28T09:15:02.837Z,4.2
2019-01-28T09:20:02.306Z,4.2
2019-01-28T09:25:02.128Z,4.2
2019-01-28T09:30:01.511Z,4.2
2019-01-28T09:35:01.607Z,4.2
2019-01-28T09:40:01.760Z,4.3
2019-01-28T09:45:01.995Z,4.3
2019-01-28T09:50:01.744Z,4.3
2019-01-28T09:55:01.976Z,4.3
2019-01-28T10:00:02.036Z,4.3
2019-01-28T10:05:02.013Z,4.3
2019-01-28T10:10:01.986Z,4.4
2019-01-28T10:15:01.879Z,4.4
2019-01-28T10:20:01.724Z,4.5
2019-01-28T10:25:01.352Z,4.5
2019-01-28T10:30:01.597Z,4.5
2019-01-28T10:35:01.519Z,4.5
2019-01-28T10:40:01.848Z,4.5
2019-01-28T10:45:02.178Z,4.5
2019-01-28T10:50:01.206Z,4.6
2019-01-28T10:55:02.204Z,4.7
2019-01-28T11:00:02.152Z,4.8
2019-01-28T11:05:02.050Z,4.8
2019-01-28T11:10:01.286Z,4.9
2019-01-28T11:15:01.491Z,5
2019-01-28T11:20:01.691Z,5
2019-01-28T11:25:02.091Z,5
2019-01-28T11:30:02.339Z,4.9
2019-01-28T11:35:02.053Z,5
2019-01-28T11:40:01.676Z,5
2019-01-28T11:45:02.377Z,4.9
2019-01-28T11:50:01.908Z,4.9
2019-01-28T11:55:02.024Z,4.9
2019-01-28T12:00:01.633Z,5
2019-01-28T12:05:02.152Z,5
2019-01-28T12:10:02.022Z,5
2019-01-28T12:15:01.182Z,5.1
2019-01-28T12:20:02.004Z,5.1
2019-01-28T12:25:01.964Z,5.1
2019-01-28T12:30:02.101Z,5.1
2019-01-28T12:35:01.262Z,5.1
2019-01-28T12:40:01.503Z,5.1
2019-01-28T12:45:01.735Z,5.1
2019-01-28T12:50:01.962Z,5.1
2019-01-28T12:55:01.435Z,5.2
2019-01-28T13:00:01.642Z,5.2
2019-01-28T13:05:01.568Z,5.1
2019-01-28T13:10:02.192Z,5.2
2019-01-28T13:15:02.053Z,5.2
2019-01-28T13:20:01.746Z,5.2
2019-01-28T13:25:01.428Z,5.1
2019-01-28T13:30:02.130Z,5.1
2019-01-28T13:35:01.186Z,5.1
2019-01-28T13:40:01.792Z,5.1
2019-01-28T13:45:02.381Z,5.1
2019-01-28T13:50:01.417Z,5.1
2019-01-28T13:55:01.618Z,5.1
2019-01-28T14:00:01.587Z,5.1
2019-01-28T14:05:02.480Z,5.1
2019-01-28T14:10:01.598Z,5.1
2019-01-28T14:15:02.128Z,5.2
2019-01-28T14:20:02.503Z,5.2
2019-01-28T14:25:02.025Z,5.2
2019-01-28T14:30:01.937Z,5.2
2019-01-28T14:35:02.055Z,5.1
2019-01-28T14:40:01.512Z,5.1
2019-01-28T14:45:01.900Z,5.1
2019-01-28T14:50:01.826Z,5.1
2019-01-28T14:55:02.319Z,5.1
2019-01-28T15:00:01.708Z,5
2019-01-28T15:05:01.712Z,5
2019-01-28T15:10:01.717Z,4.9
2019-01-28T15:15:01.737Z,4.9
2019-01-28T15:20:02.336Z,4.9
2019-01-28T15:25:01.898Z,4.9
2019-01-28T15:30:01.541Z,4.9
2019-01-28T15:35:01.237Z,4.8
2019-01-28T15:40:01.163Z,4.8
2019-01-28T15:45:01.823Z,4.9
2019-01-28T15:50:01.310Z,4.8
2019-01-28T15:55:01.865Z,4.8
2019-01-28T16:00:01.978Z,4.8
2019-01-28T16:05:01.657Z,4.7
2019-01-28T16:10:02.437Z,4.8
2019-01-28T16:15:01.563Z,4.7
2019-01-28T16:20:02.373Z,4.7
2019-01-28T16:25:01.559Z,4.8
2019-01-28T16:30:01.511Z,4.8
2019-01-28T16:35:01.445Z,4.7
2019-01-28T16:40:01.746Z,4.7
2019-01-28T16:45:01.384Z,4.7
2019-01-28T16:50:02.108Z,4.7
2019-01-28T16:55:01.502Z,4.6
2019-01-28T17:00:01.433Z,4.6
2019-01-28T17:05:02.305Z,4.5
2019-01-28T17:10:02.161Z,4.4
2019-01-28T17:15:01.843Z,4.3
2019-01-28T17:20:02.072Z,4.3
2019-01-28T17:25:01.852Z,4.2
2019-01-28T17:30:01.564Z,4.2
2019-01-28T17:35:01.531Z,4.2
2019-01-28T17:40:01.933Z,4.2
2019-01-28T17:45:02.218Z,4.2
2019-01-28T17:50:01.989Z,4.1
2019-01-28T17:55:01.536Z,3.8
2019-01-28T18:00:02.040Z,3.7
2019-01-28T18:05:02.298Z,3.6
2019-01-28T18:10:01.835Z,3.3
2019-01-28T18:15:01.991Z,3.3
2019-01-28T18:20:02.437Z,3.2
2019-01-28T18:25:01.876Z,3.1
2019-01-28T18:30:01.461Z,3.1
2019-01-28T18:35:01.775Z,3.1
2019-01-28T18:40:01.538Z,3.1
2019-01-28T18:45:01.934Z,3
2019-01-28T18:50:02.154Z,2.9
2019-01-28T18:55:01.812Z,3
2019-01-28T19:00:01.957Z,2.9
2019-01-28T19:05:01.729Z,2.8
2019-01-28T19:10:02.020Z,2.8
2019-01-28T19:15:02.215Z,2.7
2019-01-28T19:20:01.893Z,2.6
2019-01-28T19:25:01.846Z,2.6
2019-01-28T19:30:01.601Z,2.5
2019-01-28T19:35:01.943Z,2.4
2019-01-28T19:40:01.487Z,2.4
2019-01-28T19:45:02.047Z,2.3
2019-01-28T19:50:01.987Z,2.2
2019-01-28T19:55:01.944Z,2.1
2019-01-28T20:00:01.236Z,2.1
2019-01-28T20:05:02.392Z,2.1
2019-01-28T20:10:01.901Z,2.1
2019-01-28T20:15:01.752Z,2
2019-01-28T20:20:01.403Z,2
2019-01-28T20:25:02.476Z,2
2019-01-28T20:30:01.527Z,2
2019-01-28T20:35:02.145Z,1.9
2019-01-28T20:40:01.717Z,2
2019-01-28T20:45:01.988Z,1.9
2019-01-28T20:50:02.155Z,1.9
2019-01-28T20:55:01.776Z,1.9
2019-01-28T21:00:01.624Z,1.9
2019-01-28T21:05:02.287Z,1.9
2019-01-28T21:10:01.892Z,1.9
2019-01-28T21:15:02.562Z,1.8
2019-01-28T21:20:02.511Z,1.8
2019-01-28T21:25:01.284Z,1.7
2019-01-28T21:30:01.225Z,1.7
2019-01-28T21:35:02.058Z,1.7
2019-01-28T21:40:02.144Z,1.7
2019-01-28T21:45:01.774Z,1.6
2019-01-28T21:50:02.134Z,1.6
2019-01-28T21:55:02.219Z,1.6
2019-01-28T22:00:01.331Z,1.6
2019-01-28T22:05:01.466Z,1.6
2019-01-28T22:10:02.221Z,1.7
2019-01-28T22:15:01.768Z,1.6
2019-01-28T22:20:01.744Z,1.7
2019-01-28T22:25:02.018Z,1.7
2019-01-28T22:30:02.242Z,1.7
2019-01-28T22:35:02.047Z,1.7
2019-01-28T22:40:01.535Z,1.7
2019-01-28T22:45:01.854Z,1.7
2019-01-28T22:50:02.118Z,1.7
2019-01-28T22:55:01.643Z,1.7
2019-01-28T23:00:01.821Z,1.7
2019-01-28T23:05:01.539Z,1.7
2019-01-28T23:10:02.158Z,1.6
2019-01-28T23:15:01.196Z,1.7
2019-01-28T23:20:01.645Z,1.7
2019-01-28T23:25:01.597Z,1.6
2019-01-28T23:30:02.005Z,1.6
2019-01-28T23:35:01.396Z,1.6
2019-01-28T23:40:01.555Z,1.5
2019-01-28T23:45:01.672Z,1.5
2019-01-28T23:50:01.947Z,1.4
2019-01-28T23:55:01.579Z,1.3
